Quick Links (Output Below):   Max & Min Temps   /   Climate Reports   /   Zone Forecasts
River Forecasts   /   Forestry Forecasts   /   Aviation Forecasts   /   Radars   /   Features

Terminal Aerodrome Forecast (Jonesboro)

Pick a Site:
Arkadelphia | El Dorado | Fayetteville | Fort Smith | Harrison | Highfill | Hot Springs | Jonesboro
Little Rock | Monticello | Mountain Home | Pine Bluff | Texarkana
 Forecast 

KJBR 030520Z 0306/0406 00000KT P6SM SKC
     FM031400 24006KT P6SM SKC
     FM031800 22008KT P6SM FEW050
     FM040100 20003KT P6SM SKC=


 Latest METARs (Observations) 
How to Decode METARs
08Z KJBR 030753Z AUTO 26004KT 10SM CLR 24/21 A2989 RMK AO2 SLP116
         T02390206
         
07Z KJBR 030653Z AUTO 00000KT 10SM CLR 22/21 A2990 RMK AO2 SLP120
         T02220211
         
06Z KJBR 030553Z AUTO 00000KT 10SM CLR 23/21 A2991 RMK AO2 SLP123
         T02280211 10311 20228 403330200 50006
         
05Z KJBR 030453Z AUTO 25003KT 10SM CLR 23/22 A2991 RMK AO2 SLP125
         T02280217
         
04Z KJBR 030353Z AUTO 00000KT 10SM CLR 23/22 A2990 RMK AO2 SLP122
         T02330222
         
03Z KJBR 030253Z AUTO 00000KT 10SM CLR 24/22 A2989 RMK AO2 SLP117
         T02390217 53002
         
02Z KJBR 030153Z AUTO 00000KT 10SM CLR 24/21 A2987 RMK AO2 SLP111
         T02440211
         
01Z KJBR 030053Z AUTO 18004KT 10SM CLR 29/20 A2988 RMK AO2 SLP113
         T02940200
         
00Z KJBR 022353Z AUTO 21005KT 10SM CLR 31/19 A2988 RMK AO2 SLP114
         T03110194 10333 20311 58012
         
***** Today's Observations (Above) *****


23Z KJBR 022253Z AUTO 19004KT 10SM CLR 32/19 A2989 RMK AO2 SLP119
         T03170194
         
***** Yesterday's Observations (Above) *****


Back to Main Page
http://www.srh.noaa.gov/lzk/qfcst.php

USA.gov is the U.S. government's official web portal to all federal, state and local government web resources and services.